Jinghe, China
Current Conditions -  °F | °C
As of 8:30 PM on Sunday 23 Nov 2014 (Local Time) from ZWWW Reporting Station
Smoke Smoke  
Wind Chill: 21°   Ceiling: Unl
Heat Index: 28°   Visibility: 3mi
Dew Point: 21°   Wind: 7mph
Humidity: 74%   Direction: 240°WSW
Pressure: 30.18"   Gusts: NA
Location:  44.62°N, 82.9°E
Report Text: ZWWW 231230Z 24003MPS 5000 FU NSC M02/M06 Q1022 NOSIG
Loading
Personal Weather Stations






























Interactive Weather Map New forecast layout! Learn more

10-Day Weather Forecast

Advertisements
Track Severe Weather on mobile